Time;durP1;ratioP1;P1;durP2;ratioP2;P2;SDS_P1;SDS_P2;PMS_P1;PMS_P2;Temp;Humidity;BMP_temperature;BMP_pressure;BME280_temperature;BME280_humidity;BME280_pressure;Samples;Min_cycle;Max_cycle;Signal;HPM_P1;HPM_P2
2022/03/23 00:02:11;;;;;;;;;;;;;;;7.14;nan;101819.69;5002468;28;19917;-70
2022/03/23 00:04:36;;;;;;;;;;;;;;;7.14;nan;101820.53;5008480;28;19928;-70
2022/03/23 00:07:01;;;;;;;;;;;;;;;7.12;nan;101824.19;5011360;28;20011;-70
2022/03/23 00:09:27;;;;;;;;;;;;;;;7.11;nan;101815.47;5010310;28;19952;-69
2022/03/23 00:11:52;;;;;;;;;;;;;;;7.09;nan;101819.13;5011269;28;19971;-70
2022/03/23 00:14:18;;;;;;;;;;;;;;;7.02;nan;101819.50;5010024;28;20142;-70
2022/03/23 00:16:43;;;;;;;;;;;;;;;6.92;nan;101815.78;5010853;28;20440;-69
2022/03/23 00:19:09;;;;;;;;;;;;;;;6.87;nan;101812.59;5010570;28;20420;-70
2022/03/23 00:21:34;;;;;;;;;;;;;;;6.79;nan;101813.09;5011043;28;20012;-70
2022/03/23 00:24:00;;;;;;;;;;;;;;;6.81;nan;101818.22;5010302;28;19921;-70
2022/03/23 00:26:25;;;;;;;;;;;;;;;6.81;nan;101816.44;5010671;28;20012;-70
2022/03/23 00:28:50;;;;;;;;;;;;;;;6.80;nan;101814.75;5010560;28;20350;-70
2022/03/23 00:31:15;;;;;;;;;;;;;;;6.83;nan;101813.72;5010297;28;19922;-69
2022/03/23 00:33:41;;;;;;;;;;;;;;;6.78;nan;101808.75;5017462;28;19927;-69
2022/03/23 00:36:06;;;;;;;;;;;;;;;6.77;nan;101816.75;5011006;28;20321;-69
2022/03/23 00:38:32;;;;;;;;;;;;;;;6.72;nan;101817.03;5004663;28;20369;-70
2022/03/23 00:40:57;;;;;;;;;;;;;;;6.67;nan;101824.34;5010730;28;20417;-70
2022/03/23 00:43:22;;;;;;;;;;;;;;;6.61;nan;101823.91;5009919;28;19917;-69
2022/03/23 00:45:47;;;;;;;;;;;;;;;6.50;nan;101825.38;5003013;28;20021;-69
2022/03/23 00:48:13;;;;;;;;;;;;;;;6.42;nan;101818.91;5008866;28;19964;-70
2022/03/23 00:50:38;;;;;;;;;;;;;;;6.37;nan;101827.06;5009825;28;19967;-69
2022/03/23 00:53:04;;;;;;;;;;;;;;;6.34;nan;101832.47;5010567;28;19924;-69
2022/03/23 00:55:29;;;;;;;;;;;;;;;6.26;nan;101829.50;5010393;28;20362;-70
2022/03/23 00:57:55;;;;;;;;;;;;;;;6.12;nan;101828.50;5006779;28;20051;-70
2022/03/23 01:00:20;;;;;;;;;;;;;;;5.97;nan;101833.84;5009377;28;19917;-70
2022/03/23 01:02:46;;;;;;;;;;;;;;;5.80;nan;101833.00;5009171;28;19918;-70
2022/03/23 01:05:12;;;;;;;;;;;;;;;5.67;nan;101830.25;5000789;28;19928;-70
2022/03/23 01:07:37;;;;;;;;;;;;;;;5.52;nan;101834.56;5010236;28;19972;-70
2022/03/23 01:10:03;;;;;;;;;;;;;;;5.40;nan;101831.81;5010196;28;19921;-69
2022/03/23 01:12:29;;;;;;;;;;;;;;;5.29;nan;101832.41;5009843;28;20015;-70
2022/03/23 01:14:55;;;;;;;;;;;;;;;5.19;nan;101837.31;5010362;28;19951;-69
2022/03/23 01:17:20;;;;;;;;;;;;;;;5.11;nan;101837.72;5009417;28;19924;-69
2022/03/23 01:19:45;;;;;;;;;;;;;;;5.03;nan;101839.06;5007618;28;19925;-70
2022/03/23 01:22:10;;;;;;;;;;;;;;;4.94;nan;101843.06;5004809;28;19917;-70
2022/03/23 01:24:36;;;;;;;;;;;;;;;4.85;nan;101840.94;5009780;28;19940;-69
2022/03/23 01:27:03;;;;;;;;;;;;;;;4.79;nan;101841.25;5009103;28;20344;-70
2022/03/23 01:29:28;;;;;;;;;;;;;;;4.72;nan;101838.13;4995537;28;19925;-70
2022/03/23 01:31:53;;;;;;;;;;;;;;;4.67;nan;101829.63;5007322;28;19926;-70
2022/03/23 01:34:18;;;;;;;;;;;;;;;4.67;nan;101827.88;5004498;28;20001;-70
2022/03/23 01:36:44;;;;;;;;;;;;;;;4.62;nan;101823.81;5010017;28;19932;-69
2022/03/23 01:39:09;;;;;;;;;;;;;;;4.57;nan;101820.59;5009288;28;19949;-70
2022/03/23 01:41:38;;;;;;;;;;;;;;;4.46;nan;101821.16;5007931;28;20278;-70
2022/03/23 01:44:13;;;;;;;;;;;;;;;4.35;nan;101826.09;5009225;28;19917;-70
2022/03/23 01:46:57;;;;;;;;;;;;;;;4.25;nan;101833.59;5010408;28;19924;-70
2022/03/23 01:49:22;;;;;;;;;;;;;;;4.15;nan;101829.75;5001993;28;20271;-70
2022/03/23 01:51:47;;;;;;;;;;;;;;;4.07;nan;101826.66;5008937;28;19992;-70
2022/03/23 01:54:12;;;;;;;;;;;;;;;3.98;nan;101831.47;5009750;28;19913;-70
2022/03/23 01:56:37;;;;;;;;;;;;;;;3.94;nan;101831.69;5008227;28;19925;-70
2022/03/23 01:59:03;;;;;;;;;;;;;;;3.92;nan;101834.38;5010389;28;20008;-70
2022/03/23 02:01:28;;;;;;;;;;;;;;;3.87;nan;101831.13;5019941;28;19960;-70
2022/03/23 02:03:53;;;;;;;;;;;;;;;3.83;nan;101829.59;5014584;28;20287;-70
2022/03/23 02:06:19;;;;;;;;;;;;;;;3.80;nan;101824.53;5009367;28;19913;-70
2022/03/23 02:08:44;;;;;;;;;;;;;;;3.77;nan;101829.91;5010900;28;19917;-69
2022/03/23 02:11:09;;;;;;;;;;;;;;;3.75;nan;101826.53;5013911;28;20460;-69
2022/03/23 02:13:34;;;;;;;;;;;;;;;3.78;nan;101824.59;5012817;28;19932;-69
2022/03/23 02:16:00;;;;;;;;;;;;;;;3.83;nan;101827.81;5013731;28;20275;-69
2022/03/23 02:18:26;;;;;;;;;;;;;;;3.86;nan;101828.59;5013317;28;20279;-70
2022/03/23 02:20:51;;;;;;;;;;;;;;;3.81;nan;101827.06;5010673;28;19918;-69
2022/03/23 02:23:16;;;;;;;;;;;;;;;3.81;nan;101823.59;5014266;28;19917;-70
2022/03/23 02:25:44;;;;;;;;;;;;;;;3.81;nan;101826.19;5012691;28;20305;-70
2022/03/23 02:28:09;;;;;;;;;;;;;;;3.80;nan;101822.75;5015422;28;19921;-70
2022/03/23 02:30:34;;;;;;;;;;;;;;;3.77;nan;101822.91;5013147;28;19921;-69
2022/03/23 02:33:01;;;;;;;;;;;;;;;3.74;nan;101820.44;5011581;28;19956;-70
2022/03/23 02:35:26;;;;;;;;;;;;;;;3.76;nan;101825.59;5014487;28;19922;-69
2022/03/23 02:37:51;;;;;;;;;;;;;;;3.75;nan;101824.75;5012326;28;20582;-69
2022/03/23 02:40:17;;;;;;;;;;;;;;;3.72;nan;101822.28;5011513;28;19925;-70
2022/03/23 02:42:42;;;;;;;;;;;;;;;3.67;nan;101824.28;5013429;28;19940;-69
2022/03/23 02:45:10;;;;;;;;;;;;;;;3.63;nan;101827.97;5011391;28;19917;-70
2022/03/23 02:47:35;;;;;;;;;;;;;;;3.59;nan;101826.41;5013005;28;20381;-69
2022/03/23 02:50:01;;;;;;;;;;;;;;;3.55;nan;101832.72;5012253;28;20020;-69
2022/03/23 02:52:28;;;;;;;;;;;;;;;3.49;nan;101828.63;5007865;28;20297;-69
2022/03/23 03:03:28;;;;;;;;;;;;;;;3.28;nan;101840.94;5012463;28;19928;-70
2022/03/23 03:05:53;;;;;;;;;;;;;;;3.23;nan;101839.50;5010661;28;19917;-70
2022/03/23 03:11:03;;;;;;;;;;;;;;;3.09;nan;101838.34;5011644;28;19928;-69
2022/03/23 03:13:29;;;;;;;;;;;;;;;3.02;nan;101850.00;4994193;28;20386;-69
2022/03/23 03:15:59;;;;;;;;;;;;;;;2.96;nan;101848.53;5003206;28;19917;-69
2022/03/23 03:18:24;;;;;;;;;;;;;;;2.90;nan;101851.41;5011634;28;19975;-69
2022/03/23 03:20:49;;;;;;;;;;;;;;;2.85;nan;101839.50;5001794;28;19956;-69
2022/03/23 03:23:14;;;;;;;;;;;;;;;2.79;nan;101845.84;5012585;28;19917;-71
2022/03/23 03:25:39;;;;;;;;;;;;;;;2.74;nan;101845.19;5008985;28;19937;-69
2022/03/23 03:28:05;;;;;;;;;;;;;;;2.72;nan;101847.03;5010051;28;19928;-69
2022/03/23 03:30:30;;;;;;;;;;;;;;;2.69;nan;101841.94;5020072;28;19964;-69
2022/03/23 03:32:56;;;;;;;;;;;;;;;2.66;nan;101847.31;5006691;28;19964;-69
2022/03/23 03:35:23;;;;;;;;;;;;;;;2.61;nan;101842.28;5019470;28;20202;-69
2022/03/23 03:37:48;;;;;;;;;;;;;;;2.58;nan;101847.66;5012336;28;20503;-69
2022/03/23 03:40:13;;;;;;;;;;;;;;;2.57;nan;101848.53;5008135;28;19917;-69
2022/03/23 03:42:38;;;;;;;;;;;;;;;2.55;nan;101851.25;5011610;28;19925;-70
2022/03/23 03:45:05;;;;;;;;;;;;;;;2.51;nan;101859.28;5011689;28;19944;-69
2022/03/23 03:47:30;;;;;;;;;;;;;;;2.47;nan;101849.88;5010741;28;19921;-69
2022/03/23 03:49:55;;;;;;;;;;;;;;;2.43;nan;101853.53;4994271;28;19975;-69
2022/03/23 03:52:20;;;;;;;;;;;;;;;2.41;nan;101861.44;5005239;28;22248;-70
2022/03/23 03:54:45;;;;;;;;;;;;;;;2.40;nan;101864.09;5010022;28;19918;-69
2022/03/23 03:57:11;;;;;;;;;;;;;;;2.37;nan;101861.63;5011364;28;19917;-70
2022/03/23 03:59:37;;;;;;;;;;;;;;;2.33;nan;101866.97;5010830;28;19971;-69
2022/03/23 04:02:02;;;;;;;;;;;;;;;2.32;nan;101862.69;5011841;28;20519;-69
2022/03/23 04:04:27;;;;;;;;;;;;;;;2.32;nan;101862.69;5011176;28;20043;-69
2022/03/23 04:06:53;;;;;;;;;;;;;;;2.32;nan;101865.28;5010986;28;19918;-69
2022/03/23 04:09:18;;;;;;;;;;;;;;;2.32;nan;101861.84;5010942;28;19917;-69
2022/03/23 04:11:43;;;;;;;;;;;;;;;2.29;nan;101868.03;5011069;28;19960;-69
2022/03/23 04:14:08;;;;;;;;;;;;;;;2.27;nan;101866.41;5010104;28;20017;-69
2022/03/23 04:16:34;;;;;;;;;;;;;;;2.21;nan;101864.03;5002558;28;19949;-70
2022/03/23 04:19:00;;;;;;;;;;;;;;;2.18;nan;101862.41;5006108;28;20544;-69
2022/03/23 04:21:26;;;;;;;;;;;;;;;2.17;nan;101867.69;5011269;28;19924;-69
2022/03/23 04:23:51;;;;;;;;;;;;;;;2.15;nan;101870.38;5001820;28;20204;-69
2022/03/23 04:26:16;;;;;;;;;;;;;;;2.10;nan;101873.19;5010467;28;19924;-69
2022/03/23 04:28:41;;;;;;;;;;;;;;;2.08;nan;101874.16;5022731;28;20433;-69
2022/03/23 04:31:07;;;;;;;;;;;;;;;2.07;nan;101873.31;5010163;28;19929;-69
2022/03/23 04:33:32;;;;;;;;;;;;;;;2.08;nan;101874.16;5011867;28;19948;-69
2022/03/23 04:35:57;;;;;;;;;;;;;;;2.05;nan;101880.34;5010731;28;19917;-69
2022/03/23 04:38:22;;;;;;;;;;;;;;;2.02;nan;101890.06;5010196;28;20381;-69
2022/03/23 04:40:48;;;;;;;;;;;;;;;1.99;nan;101892.78;5010552;28;19938;-70
2022/03/23 04:43:14;;;;;;;;;;;;;;;1.99;nan;101890.19;5002260;28;19921;-69
2022/03/23 04:45:40;;;;;;;;;;;;;;;1.96;nan;101892.94;5008418;28;19925;-69
2022/03/23 04:48:05;;;;;;;;;;;;;;;1.92;nan;101900.84;5007717;28;20247;-69
2022/03/23 04:50:32;;;;;;;;;;;;;;;1.88;nan;101907.13;5010083;28;20416;-70
2022/03/23 04:52:57;;;;;;;;;;;;;;;1.83;nan;101906.44;5009990;28;19917;-69
2022/03/23 04:55:22;;;;;;;;;;;;;;;1.79;nan;101904.88;5010450;28;19915;-69
2022/03/23 04:57:48;;;;;;;;;;;;;;;1.80;nan;101905.72;5004314;28;19922;-69
2022/03/23 05:00:15;;;;;;;;;;;;;;;1.77;nan;101900.66;5008496;28;20368;-69
2022/03/23 05:02:41;;;;;;;;;;;;;;;1.78;nan;101911.00;5011847;28;20374;-69
2022/03/23 05:05:07;;;;;;;;;;;;;;;1.81;nan;101910.03;5009795;28;19917;-70
2022/03/23 05:07:32;;;;;;;;;;;;;;;1.82;nan;101909.97;5009276;28;20054;-69
2022/03/23 05:09:58;;;;;;;;;;;;;;;1.80;nan;101908.34;5009563;28;19952;-69
2022/03/23 05:12:23;;;;;;;;;;;;;;;1.74;nan;101917.28;5002633;28;19922;-69
2022/03/23 05:14:49;;;;;;;;;;;;;;;1.69;nan;101919.19;5007091;28;19917;-69
2022/03/23 05:17:15;;;;;;;;;;;;;;;1.65;nan;101910.66;5010552;28;20275;-69
2022/03/23 05:19:40;;;;;;;;;;;;;;;1.63;nan;101914.22;5010289;28;19917;-69
2022/03/23 05:22:05;;;;;;;;;;;;;;;1.62;nan;101912.50;5009357;28;19918;-70
2022/03/23 05:24:31;;;;;;;;;;;;;;;1.61;nan;101916.88;5010004;28;19917;-69
2022/03/23 05:26:56;;;;;;;;;;;;;;;1.60;nan;101909.97;5004456;28;19917;-69
2022/03/23 05:29:22;;;;;;;;;;;;;;;1.61;nan;101910.81;5021230;28;19980;-69
2022/03/23 05:31:47;;;;;;;;;;;;;;;1.62;nan;101921.22;5010318;28;20393;-69
2022/03/23 05:34:12;;;;;;;;;;;;;;;1.61;nan;101916.03;5003881;28;20115;-69
2022/03/23 05:36:37;;;;;;;;;;;;;;;1.61;nan;101918.66;5009879;28;19913;-69
2022/03/23 05:39:02;;;;;;;;;;;;;;;1.60;nan;101917.81;5009816;28;19925;-70
2022/03/23 05:41:28;;;;;;;;;;;;;;;1.60;nan;101919.56;5000463;28;19917;-69
2022/03/23 05:43:53;;;;;;;;;;;;;;;1.61;nan;101922.09;5010097;28;19921;-69
2022/03/23 05:46:18;;;;;;;;;;;;;;;1.63;nan;101922.03;5008784;28;19935;-69
2022/03/23 05:48:44;;;;;;;;;;;;;;;1.66;nan;101919.31;5009843;28;20367;-69
2022/03/23 05:51:09;;;;;;;;;;;;;;;1.70;nan;101916.53;5009497;28;20155;-69
2022/03/23 05:53:36;;;;;;;;;;;;;;;1.74;nan;101922.47;5009610;28;19921;-69
2022/03/23 05:56:04;;;;;;;;;;;;;;;1.78;nan;101928.41;5009001;28;20267;-69
2022/03/23 05:58:30;;;;;;;;;;;;;;;1.83;nan;101926.47;5007364;28;20625;-69
2022/03/23 06:00:55;;;;;;;;;;;;;;;1.88;nan;101924.53;4999426;28;19924;-69
2022/03/23 06:03:21;;;;;;;;;;;;;;;1.95;nan;101933.78;5015045;28;19944;-68
2022/03/23 06:05:46;;;;;;;;;;;;;;;2.06;nan;101938.59;5009989;28;19953;-69
2022/03/23 06:08:11;;;;;;;;;;;;;;;2.23;nan;101943.13;5009785;28;19939;-69
2022/03/23 06:10:36;;;;;;;;;;;;;;;2.58;nan;101941.66;4996447;28;19960;-69
2022/03/23 06:13:02;;;;;;;;;;;;;;;3.07;nan;101941.25;5010112;28;20035;-69
2022/03/23 06:15:27;;;;;;;;;;;;;;;3.68;nan;101948.06;5008734;28;19925;-69
2022/03/23 06:17:53;;;;;;;;;;;;;;;4.24;nan;101953.19;5010527;28;20180;-69
2022/03/23 06:20:18;;;;;;;;;;;;;;;4.79;nan;101960.03;5009597;28;19913;-70
2022/03/23 06:22:43;;;;;;;;;;;;;;;5.34;nan;101956.28;5010620;28;20385;-70
2022/03/23 06:25:09;;;;;;;;;;;;;;;5.86;nan;101963.03;5009155;28;19921;-70
2022/03/23 06:27:34;;;;;;;;;;;;;;;6.41;nan;101962.53;5015006;28;19933;-69
2022/03/23 06:29:59;;;;;;;;;;;;;;;6.91;nan;101966.63;5013928;28;19918;-69
2022/03/23 06:32:25;;;;;;;;;;;;;;;7.39;nan;101964.53;4999645;28;20008;-69
2022/03/23 06:34:50;;;;;;;;;;;;;;;7.87;nan;101972.06;5022128;28;20452;-70
2022/03/23 06:37:15;;;;;;;;;;;;;;;8.25;nan;101971.34;5008813;28;19917;-70
2022/03/23 06:39:40;;;;;;;;;;;;;;;8.61;nan;101976.00;5008993;28;20297;-70
2022/03/23 06:42:06;;;;;;;;;;;;;;;8.97;nan;101979.72;5008939;28;19944;-71
2022/03/23 06:44:31;;;;;;;;;;;;;;;9.24;nan;101982.22;5008617;28;19924;-70
2022/03/23 06:46:56;;;;;;;;;;;;;;;9.51;nan;101981.22;5011096;28;19979;-70
2022/03/23 06:49:21;;;;;;;;;;;;;;;9.74;nan;101987.50;5012260;28;19918;-70
2022/03/23 06:51:47;;;;;;;;;;;;;;;9.96;nan;101986.78;5001732;28;19917;-70
2022/03/23 06:54:12;;;;;;;;;;;;;;;10.02;nan;101983.72;5006537;28;19921;-70
2022/03/23 06:56:37;;;;;;;;;;;;;;;10.06;nan;101979.03;5000400;28;19925;-70
2022/03/23 06:59:04;;;;;;;;;;;;;;;10.01;nan;101979.41;5005534;28;20480;-70
2022/03/23 07:01:30;;;;;;;;;;;;;;;10.04;nan;101987.09;5014710;28;20282;-70
2022/03/23 07:03:55;;;;;;;;;;;;;;;10.13;nan;101985.53;5007594;28;19918;-70
2022/03/23 07:06:20;;;;;;;;;;;;;;;10.32;nan;101970.06;5012052;28;20012;-70
2022/03/23 07:11:29;;;;;;;;;;;;;;;10.92;nan;101986.69;5011541;28;19975;-71
2022/03/23 07:13:55;;;;;;;;;;;;;;;11.13;nan;101985.97;4999189;28;19925;-70
2022/03/23 07:16:20;;;;;;;;;;;;;;;11.47;nan;101989.47;5011509;28;19925;-70
2022/03/23 07:18:45;;;;;;;;;;;;;;;11.77;nan;101982.66;5012038;28;19917;-70
2022/03/23 07:21:11;;;;;;;;;;;;;;;12.13;nan;101988.63;5012421;28;20428;-71
2022/03/23 07:23:36;;;;;;;;;;;;;;;12.43;nan;101986.09;5011905;28;19931;-71
2022/03/23 07:26:02;;;;;;;;;;;;;;;12.57;nan;101989.41;5006442;28;19983;-71
2022/03/23 07:28:28;;;;;;;;;;;;;;;12.74;nan;101986.16;5020382;28;19917;-71
2022/03/23 07:30:53;;;;;;;;;;;;;;;12.93;nan;101990.75;5008998;28;19925;-71
2022/03/23 07:33:18;;;;;;;;;;;;;;;13.26;nan;101997.63;5014895;28;20026;-71
2022/03/23 07:35:43;;;;;;;;;;;;;;;13.30;nan;102004.41;4995256;28;19918;-71
2022/03/23 07:38:09;;;;;;;;;;;;;;;13.46;nan;102003.03;5008723;28;20378;-71
2022/03/23 07:40:34;;;;;;;;;;;;;;;13.55;nan;102003.09;5008295;28;19941;-71
2022/03/23 07:42:59;;;;;;;;;;;;;;;13.78;nan;102005.53;5004264;28;19925;-71
2022/03/23 07:45:24;;;;;;;;;;;;;;;14.01;nan;102003.47;5009609;28;20287;-71
2022/03/23 07:47:50;;;;;;;;;;;;;;;14.00;nan;102001.78;5009545;28;19917;-72
2022/03/23 07:50:15;;;;;;;;;;;;;;;14.45;nan;102011.91;5001395;28;19928;-72
2022/03/23 07:52:40;;;;;;;;;;;;;;;14.76;nan;102009.09;4999688;28;20012;-72
2022/03/23 07:55:05;;;;;;;;;;;;;;;15.03;nan;102011.81;5010020;28;19961;-72
2022/03/23 07:57:31;;;;;;;;;;;;;;;15.14;nan;102010.81;5012815;28;19924;-72
2022/03/23 07:59:56;;;;;;;;;;;;;;;15.36;nan;102011.44;5009815;28;19921;-72
2022/03/23 08:02:26;;;;;;;;;;;;;;;15.80;nan;102006.31;5016030;28;19924;-72
2022/03/23 08:04:51;;;;;;;;;;;;;;;15.81;nan;102011.53;5000297;28;19945;-72
2022/03/23 08:07:16;;;;;;;;;;;;;;;15.95;nan;102012.84;5005821;28;19983;-72
2022/03/23 08:09:41;;;;;;;;;;;;;;;16.24;nan;102009.13;5009290;28;19921;-72
2022/03/23 08:12:07;;;;;;;;;;;;;;;16.61;nan;102014.25;5008615;28;20048;-72
2022/03/23 08:14:32;;;;;;;;;;;;;;;16.87;nan;102021.50;4996177;28;19925;-72
2022/03/23 08:16:57;;;;;;;;;;;;;;;17.17;nan;102017.53;5002584;28;19936;-72
2022/03/23 08:19:22;;;;;;;;;;;;;;;17.53;nan;102023.53;4999418;28;19918;-72
2022/03/23 08:21:48;;;;;;;;;;;;;;;17.93;nan;102015.84;5010159;28;20384;-72
2022/03/23 08:24:14;;;;;;;;;;;;;;;18.19;nan;102019.22;5009063;28;19921;-72
2022/03/23 08:26:39;;;;;;;;;;;;;;;18.09;nan;102021.25;5010317;28;19917;-72
2022/03/23 08:29:05;;;;;;;;;;;;;;;18.21;nan;102019.91;5014644;28;19917;-72
2022/03/23 08:31:30;;;;;;;;;;;;;;;18.34;nan;102019.41;5010943;28;19983;-72
2022/03/23 08:33:55;;;;;;;;;;;;;;;18.57;nan;102014.22;5009359;28;19939;-72
2022/03/23 08:36:21;;;;;;;;;;;;;;;18.90;nan;102008.84;4999123;28;19925;-72
2022/03/23 08:38:46;;;;;;;;;;;;;;;19.33;nan;102020.16;5010265;28;19924;-72
2022/03/23 08:41:13;;;;;;;;;;;;;;;19.87;nan;102022.09;5006949;28;19917;-72
2022/03/23 08:43:38;;;;;;;;;;;;;;;20.20;nan;102016.53;5008917;28;20098;-72
2022/03/23 08:46:04;;;;;;;;;;;;;;;20.34;nan;102018.44;5000515;28;19917;-72
2022/03/23 08:48:29;;;;;;;;;;;;;;;20.97;nan;102024.44;4999085;28;19924;-72
2022/03/23 08:50:54;;;;;;;;;;;;;;;21.31;nan;102018.53;5010486;28;20401;-72
2022/03/23 08:53:20;;;;;;;;;;;;;;;21.75;nan;102025.72;5009999;28;19913;-73
2022/03/23 08:55:45;;;;;;;;;;;;;;;22.02;nan;102028.72;5009603;28;19921;-72
2022/03/23 08:58:10;;;;;;;;;;;;;;;22.24;nan;102025.03;5014103;28;19921;-73
2022/03/23 09:00:36;;;;;;;;;;;;;;;22.70;nan;102015.69;5006568;28;19914;-73
2022/03/23 09:03:02;;;;;;;;;;;;;;;22.97;nan;102015.88;4991783;28;20024;-73
2022/03/23 09:05:27;;;;;;;;;;;;;;;23.17;nan;102016.00;5005567;28;20478;-72
2022/03/23 09:07:52;;;;;;;;;;;;;;;23.06;nan;102018.25;5010387;28;19955;-72
2022/03/23 09:10:19;;;;;;;;;;;;;;;23.22;nan;102021.66;5009344;28;20291;-73
2022/03/23 09:12:45;;;;;;;;;;;;;;;23.76;nan;102017.34;5010731;28;20449;-73
2022/03/23 09:15:11;;;;;;;;;;;;;;;24.45;nan;102018.91;5005825;28;19913;-73
2022/03/23 09:17:36;;;;;;;;;;;;;;;24.61;nan;102018.53;5007150;28;19917;-72
2022/03/23 09:20:03;;;;;;;;;;;;;;;24.59;nan;102010.63;5009297;28;20004;-73
2022/03/23 09:22:28;;;;;;;;;;;;;;;24.90;nan;102019.13;5010301;28;20024;-73
2022/03/23 09:24:53;;;;;;;;;;;;;;;25.33;nan;102021.34;5016637;28;20372;-73
2022/03/23 09:27:19;;;;;;;;;;;;;;;25.86;nan;102026.53;4993118;28;20335;-73
2022/03/23 09:29:44;;;;;;;;;;;;;;;26.33;nan;102021.63;4993565;28;19918;-73
2022/03/23 09:32:12;;;;;;;;;;;;;;;26.61;nan;102018.53;5005930;28;19971;-73
2022/03/23 09:34:37;;;;;;;;;;;;;;;26.92;nan;102015.94;5011920;28;19921;-71
2022/03/23 09:39:47;;;;;;;;;;;;;;;27.16;nan;102017.75;5018204;28;19968;-73
2022/03/23 09:42:12;;;;;;;;;;;;;;;27.09;nan;102019.72;5009799;28;19944;-73
2022/03/23 09:44:38;;;;;;;;;;;;;;;27.16;nan;102008.78;5010070;28;20426;-73
2022/03/23 09:47:05;;;;;;;;;;;;;;;26.97;nan;102008.78;5009782;28;20191;-72
2022/03/23 09:49:30;;;;;;;;;;;;;;;26.57;nan;102001.03;5009909;28;19987;-73
2022/03/23 09:51:56;;;;;;;;;;;;;;;26.93;nan;102004.84;5011819;28;19917;-73
2022/03/23 09:54:21;;;;;;;;;;;;;;;27.62;nan;101994.63;5015627;28;19951;-73
2022/03/23 09:56:47;;;;;;;;;;;;;;;28.27;nan;101987.63;5009838;28;19965;-73
2022/03/23 09:59:12;;;;;;;;;;;;;;;28.06;nan;101997.19;5018018;28;19913;-73
2022/03/23 10:01:37;;;;;;;;;;;;;;;28.58;nan;102000.97;5002600;28;20274;-73
2022/03/23 10:04:25;;;;;;;;;;;;;;;28.78;nan;101995.13;5008842;28;20362;-74
2022/03/23 10:06:59;;;;;;;;;;;;;;;29.64;nan;101991.75;5001705;28;19914;-73
2022/03/23 10:09:44;;;;;;;;;;;;;;;29.64;nan;101994.47;5009838;28;19917;-73
2022/03/23 10:12:28;;;;;;;;;;;;;;;29.82;nan;101993.50;5013384;28;19917;-73
2022/03/23 10:15:12;;;;;;;;;;;;;;;29.71;nan;101988.91;4995810;28;19913;-73
2022/03/23 10:17:56;;;;;;;;;;;;;;;30.20;nan;101986.47;5010007;28;20012;-73
2022/03/23 10:20:21;;;;;;;;;;;;;;;30.09;nan;101990.13;5006294;28;23067;-73
2022/03/23 10:22:48;;;;;;;;;;;;;;;30.24;nan;101990.38;5011101;28;19944;-73
2022/03/23 10:25:14;;;;;;;;;;;;;;;30.52;nan;101983.19;5017997;28;19920;-73
2022/03/23 10:27:39;;;;;;;;;;;;;;;29.90;nan;101987.63;5019813;28;19913;-73
2022/03/23 10:30:05;;;;;;;;;;;;;;;29.69;nan;101977.41;5016571;28;19917;-73
2022/03/23 10:32:34;;;;;;;;;;;;;;;30.08;nan;101978.34;5018390;28;19920;-73
2022/03/23 10:35:00;;;;;;;;;;;;;;;29.74;nan;101978.31;5018061;28;19941;-73
2022/03/23 10:37:26;;;;;;;;;;;;;;;30.20;nan;101979.13;5004939;28;20052;-73
2022/03/23 10:39:52;;;;;;;;;;;;;;;31.16;nan;101980.00;5018340;28;20000;-73
2022/03/23 10:42:20;;;;;;;;;;;;;;;31.47;nan;101973.81;5013005;28;19913;-73
2022/03/23 10:44:46;;;;;;;;;;;;;;;31.51;nan;101972.22;5021620;28;19913;-70
2022/03/23 10:47:25;;;;;;;;;;;;;;;31.21;nan;101969.94;5013408;28;20291;-73
2022/03/23 10:49:50;;;;;;;;;;;;;;;31.51;nan;101964.03;5013119;28;19944;-73
2022/03/23 10:52:16;;;;;;;;;;;;;;;32.11;nan;101964.84;5017917;28;19913;-71
2022/03/23 10:54:53;;;;;;;;;;;;;;;32.03;nan;101959.03;5001700;28;19937;-70
2022/03/23 10:57:19;;;;;;;;;;;;;;;32.66;nan;101957.31;5014390;28;20060;-71
2022/03/23 10:59:45;;;;;;;;;;;;;;;32.50;nan;101961.88;5013927;28;20440;-71
2022/03/23 11:02:10;;;;;;;;;;;;;;;32.96;nan;101953.88;5002858;28;19929;-71
2022/03/23 11:04:53;;;;;;;;;;;;;;;33.22;nan;101952.06;5017248;28;19992;-71
2022/03/23 11:07:25;;;;;;;;;;;;;;;33.67;nan;101952.47;5006943;28;19913;-71
2022/03/23 11:18:08;;;;;;;;;;;;;;;34.29;nan;101953.28;5002482;28;19948;-71
2022/03/23 11:20:48;;;;;;;;;;;;;;;34.41;nan;101944.75;5008750;28;19914;-70
2022/03/23 11:23:22;;;;;;;;;;;;;;;34.41;nan;101940.06;5008877;28;19968;-70
2022/03/23 11:25:51;;;;;;;;;;;;;;;34.33;nan;101937.91;5001588;28;20384;-71
2022/03/23 11:28:16;;;;;;;;;;;;;;;34.58;nan;101933.44;5014783;28;19913;-71
2022/03/23 11:30:43;;;;;;;;;;;;;;;35.03;nan;101934.38;5012623;28;20271;-72
2022/03/23 11:33:12;;;;;;;;;;;;;;;35.39;nan;101921.25;5005345;28;19920;-72
2022/03/23 11:35:44;;;;;;;;;;;;;;;35.48;nan;101926.97;5000686;28;19941;-72
2022/03/23 11:38:11;;;;;;;;;;;;;;;35.24;nan;101930.44;4992498;28;19914;-72
2022/03/23 11:40:36;;;;;;;;;;;;;;;35.18;nan;101915.06;5008312;28;20284;-72
2022/03/23 11:43:02;;;;;;;;;;;;;;;35.41;nan;101915.47;5012139;28;20004;-72
2022/03/23 11:45:27;;;;;;;;;;;;;;;35.88;nan;101912.09;5018411;28;19920;-72
2022/03/23 11:48:01;;;;;;;;;;;;;;;36.16;nan;101915.16;4996212;28;20287;-72
2022/03/23 11:50:35;;;;;;;;;;;;;;;36.14;nan;101909.94;4998086;28;19921;-72
2022/03/23 11:53:06;;;;;;;;;;;;;;;34.96;nan;101901.69;5012172;28;19920;-72
2022/03/23 11:55:42;;;;;;;;;;;;;;;33.26;nan;101897.53;5007954;28;19917;-72
2022/03/23 11:58:15;;;;;;;;;;;;;;;31.95;nan;101892.75;5002639;28;19921;-72
2022/03/23 12:01:04;;;;;;;;;;;;;;;30.82;nan;101884.47;5007551;28;20380;-72
2022/03/23 12:03:41;;;;;;;;;;;;;;;29.18;nan;101888.16;4986889;28;20388;-72
2022/03/23 12:06:13;;;;;;;;;;;;;;;28.48;nan;101875.53;5007264;28;19960;-73
2022/03/23 12:08:47;;;;;;;;;;;;;;;27.67;nan;101867.06;5010781;28;20012;-72
2022/03/23 12:11:44;;;;;;;;;;;;;;;27.21;nan;101862.31;5003681;28;20003;-72
2022/03/23 12:14:22;;;;;;;;;;;;;;;26.72;nan;101862.31;4988599;28;19924;-72
2022/03/23 12:16:50;;;;;;;;;;;;;;;26.18;nan;101864.72;5009606;28;19928;-72
2022/03/23 12:19:22;;;;;;;;;;;;;;;25.66;nan;101855.94;5007699;28;20326;-72
2022/03/23 12:22:05;;;;;;;;;;;;;;;25.26;nan;101855.38;5007891;28;19917;-72
2022/03/23 12:24:39;;;;;;;;;;;;;;;24.84;nan;101846.81;5005752;28;19921;-72
2022/03/23 12:27:11;;;;;;;;;;;;;;;24.53;nan;101846.50;5010839;28;19985;-72
2022/03/23 12:29:39;;;;;;;;;;;;;;;24.23;nan;101838.00;5015495;28;20070;-72
2022/03/23 12:32:06;;;;;;;;;;;;;;;24.09;nan;101839.06;5006997;28;19917;-72
2022/03/23 12:34:32;;;;;;;;;;;;;;;23.83;nan;101832.63;5017272;28;19925;-72
2022/03/23 12:37:10;;;;;;;;;;;;;;;23.64;nan;101819.94;5004512;28;20420;-71
2022/03/23 12:39:39;;;;;;;;;;;;;;;23.14;nan;101822.97;5010658;28;19987;-71
2022/03/23 12:42:15;;;;;;;;;;;;;;;22.72;nan;101824.06;5009671;28;19964;-71
2022/03/23 12:44:41;;;;;;;;;;;;;;;22.01;nan;101825.88;5006903;28;20271;-71
2022/03/23 12:47:08;;;;;;;;;;;;;;;21.71;nan;101819.81;5009797;28;19921;-71
2022/03/23 12:58:01;;;;;;;;;;;;;;;20.35;nan;101807.88;5008201;28;19948;-71
2022/03/23 13:00:30;;;;;;;;;;;;;;;20.11;nan;101807.09;5003329;28;20101;-71
2022/03/23 13:03:04;;;;;;;;;;;;;;;20.07;nan;101803.13;5008733;28;19917;-71
2022/03/23 13:05:31;;;;;;;;;;;;;;;20.06;nan;101801.44;5001321;28;20451;-71
2022/03/23 13:07:57;;;;;;;;;;;;;;;19.87;nan;101801.97;5009462;28;19917;-71
2022/03/23 13:10:24;;;;;;;;;;;;;;;19.78;nan;101790.47;5009798;28;19979;-71
2022/03/23 13:12:50;;;;;;;;;;;;;;;19.79;nan;101794.84;5006117;28;19918;-71
2022/03/23 13:15:17;;;;;;;;;;;;;;;19.75;nan;101790.84;5004498;28;20375;-71
2022/03/23 13:17:43;;;;;;;;;;;;;;;19.72;nan;101784.00;5008644;28;19979;-71
2022/03/23 13:20:09;;;;;;;;;;;;;;;19.73;nan;101788.38;5006294;28;19932;-71
2022/03/23 13:22:39;;;;;;;;;;;;;;;19.58;nan;101782.06;5007306;28;19917;-71
2022/03/23 13:25:09;;;;;;;;;;;;;;;19.40;nan;101786.91;5008881;28;19952;-71
2022/03/23 13:27:40;;;;;;;;;;;;;;;19.34;nan;101776.91;5011355;28;19924;-71
2022/03/23 13:30:08;;;;;;;;;;;;;;;19.25;nan;101771.59;5002099;28;20552;-72
2022/03/23 13:32:36;;;;;;;;;;;;;;;19.34;nan;101775.06;5003596;28;19917;-71
2022/03/23 13:35:02;;;;;;;;;;;;;;;19.43;nan;101767.78;5016450;28;19917;-71